createdAt,value
2023-01-10T00:00:49.584Z,3.20
2023-01-10T00:03:18.018Z,3.15
2023-01-10T00:05:46.494Z,3.08
2023-01-10T00:08:18.063Z,3.47
2023-01-10T00:10:46.413Z,5.53
2023-01-10T00:13:24.777Z,5.60
2023-01-10T00:15:56.714Z,4.55
2023-01-10T00:18:25.235Z,5.43
2023-01-10T00:20:53.666Z,4.80
2023-01-10T00:23:24.666Z,5.03
2023-01-10T00:25:52.975Z,3.50
2023-01-10T00:28:21.836Z,4.22
2023-01-10T00:31:00.155Z,3.90
2023-01-10T00:33:32.046Z,5.43
2023-01-10T00:36:00.813Z,4.32
2023-01-10T00:38:30.585Z,4.15
2023-01-10T00:40:59.168Z,5.38
2023-01-10T00:43:45.032Z,3.90
2023-01-10T00:46:14.019Z,5.43
2023-01-10T00:48:43.865Z,4.65
2023-01-10T00:51:12.337Z,3.00
2023-01-10T00:53:40.731Z,3.08
2023-01-10T00:56:09.819Z,2.83
2023-01-10T00:58:38.101Z,4.00
2023-01-10T01:01:06.852Z,3.50
2023-01-10T01:03:35.896Z,5.57
2023-01-10T01:06:08.147Z,2.28
2023-01-10T01:08:36.557Z,4.10
2023-01-10T01:11:04.842Z,3.15
2023-01-10T01:13:33.262Z,4.85
2023-01-10T01:16:02.153Z,2.50
2023-01-10T01:18:30.773Z,1.83
2023-01-10T01:21:02.505Z,4.50
2023-01-10T01:23:32.342Z,3.85
2023-01-10T01:26:00.753Z,2.47
2023-01-10T01:28:29.285Z,1.85
2023-01-10T01:30:57.689Z,3.17
2023-01-10T01:33:26.046Z,3.55
2023-01-10T01:35:54.425Z,4.53
2023-01-10T01:38:22.800Z,5.10
2023-01-10T01:40:52.634Z,3.95
2023-01-10T01:43:25.339Z,3.25
2023-01-10T01:45:54.717Z,2.97
2023-01-10T01:48:30.169Z,3.63
2023-01-10T01:51:05.954Z,4.65
2023-01-10T01:53:38.663Z,2.97
2023-01-10T01:56:13.100Z,5.25
2023-01-10T01:58:47.868Z,2.55
2023-01-10T02:01:17.174Z,1.65
2023-01-10T02:03:50.347Z,4.57
2023-01-10T02:06:20.728Z,1.65
2023-01-10T02:08:58.125Z,1.52
2023-01-10T02:11:28.301Z,2.75
2023-01-10T02:13:57.400Z,1.73
2023-01-10T02:16:25.733Z,0.65
2023-01-10T02:18:54.123Z,1.33
2023-01-10T02:21:44.023Z,1.88
2023-01-10T02:24:37.574Z,1.42
2023-01-10T02:27:22.145Z,2.08
2023-01-10T02:30:39.183Z,1.58
2023-01-10T02:33:18.551Z,1.08
2023-01-10T02:36:03.571Z,1.25
2023-01-10T02:38:42.900Z,1.52
2023-01-10T02:41:19.837Z,2.17
2023-01-10T02:43:52.984Z,1.38
2023-01-10T02:46:27.743Z,1.63
2023-01-10T02:48:57.751Z,1.08
2023-01-10T02:51:28.575Z,1.55
2023-01-10T02:54:01.008Z,1.00
2023-01-10T02:56:52.873Z,2.70
2023-01-10T03:00:04.399Z,1.02
2023-01-10T03:02:46.275Z,2.58
2023-01-10T03:05:26.439Z,1.00
2023-01-10T03:08:02.643Z,1.42
2023-01-10T03:10:39.202Z,1.63
2023-01-10T03:13:12.350Z,0.50
2023-01-10T03:15:43.194Z,1.25
2023-01-10T03:18:16.651Z,1.65
2023-01-10T03:20:49.539Z,0.45
2023-01-10T03:23:20.213Z,1.67
2023-01-10T03:25:49.472Z,1.13
2023-01-10T03:28:20.792Z,2.25
2023-01-10T03:30:53.716Z,1.05
2023-01-10T03:33:29.323Z,1.05
2023-01-10T03:36:10.147Z,2.13
2023-01-10T03:38:46.574Z,1.65
2023-01-10T03:41:19.831Z,2.65
2023-01-10T03:44:10.811Z,2.50
2023-01-10T03:46:45.577Z,1.73
2023-01-10T03:49:16.640Z,1.60
2023-01-10T03:51:46.887Z,1.50
2023-01-10T03:54:17.740Z,3.63
2023-01-10T03:56:47.686Z,1.27
2023-01-10T03:59:16.136Z,1.73
2023-01-10T04:01:44.754Z,3.20
2023-01-10T04:04:13.222Z,3.33
2023-01-10T04:06:42.068Z,2.85
2023-01-10T04:09:12.334Z,1.17
2023-01-10T04:11:41.610Z,2.67
2023-01-10T04:14:09.881Z,2.42
2023-01-10T04:16:38.448Z,2.22
2023-01-10T04:19:07.140Z,3.65
2023-01-10T04:21:35.461Z,4.03
2023-01-10T04:24:03.787Z,1.98
2023-01-10T04:26:33.543Z,2.72
2023-01-10T04:29:01.913Z,4.72
2023-01-10T04:31:30.247Z,1.20
2023-01-10T04:33:58.671Z,1.60
2023-01-10T04:36:27.658Z,2.10
2023-01-10T04:38:56.173Z,3.83
2023-01-10T04:41:24.529Z,3.17
2023-01-10T04:43:54.298Z,4.85
2023-01-10T04:46:23.077Z,3.47
2023-01-10T04:48:51.420Z,3.67
2023-01-10T04:51:19.766Z,3.35
2023-01-10T04:53:48.155Z,3.38
2023-01-10T04:56:19.500Z,4.20
2023-01-10T04:58:49.100Z,3.78
2023-01-10T05:01:21.022Z,4.30
2023-01-10T05:03:50.219Z,5.10
2023-01-10T05:06:19.208Z,2.67
2023-01-10T05:08:48.127Z,3.30
2023-01-10T05:11:16.657Z,3.17
2023-01-10T05:13:47.143Z,2.50
2023-01-10T05:16:16.383Z,2.85
2023-01-10T05:18:46.545Z,2.88
2023-01-10T05:21:15.683Z,3.47
2023-01-10T05:23:44.343Z,2.03
2023-01-10T05:26:14.672Z,3.22
2023-01-10T05:28:43.695Z,4.57
2023-01-10T05:31:14.458Z,1.88
2023-01-10T05:33:47.483Z,4.57
2023-01-10T05:36:15.953Z,2.95
2023-01-10T05:38:44.507Z,1.92
2023-01-10T05:41:12.968Z,2.17
2023-01-10T05:43:41.627Z,2.55
2023-01-10T05:46:10.347Z,4.00
2023-01-10T05:48:38.962Z,3.70
2023-01-10T05:51:09.340Z,3.97
2023-01-10T05:53:37.675Z,3.45
2023-01-10T05:56:07.853Z,4.95
2023-01-10T05:58:36.339Z,2.05
2023-01-10T06:01:04.915Z,3.13
2023-01-10T06:03:33.244Z,5.38
2023-01-10T06:06:03.376Z,3.72
2023-01-10T06:08:33.419Z,3.97
2023-01-10T06:11:01.769Z,2.72
2023-01-10T06:13:30.067Z,5.47
2023-01-10T06:15:58.480Z,3.67
2023-01-10T06:18:26.959Z,2.72
2023-01-10T06:20:55.213Z,4.43
2023-01-10T06:23:23.571Z,2.58
2023-01-10T06:25:53.381Z,5.60
2023-01-10T06:28:21.662Z,6.68
2023-01-10T06:30:50.002Z,9.48
2023-01-10T06:33:18.391Z,3.70
2023-01-10T06:35:48.296Z,2.97
2023-01-10T06:38:16.903Z,3.58
2023-01-10T06:40:45.282Z,3.45
2023-01-10T06:43:15.014Z,7.10
2023-01-10T06:45:43.690Z,2.28
2023-01-10T06:48:12.023Z,6.57
2023-01-10T06:50:40.351Z,2.25
2023-01-10T06:53:08.709Z,4.07
2023-01-10T06:55:37.042Z,2.78
2023-01-10T06:58:05.939Z,2.47
2023-01-10T07:00:35.610Z,4.03
2023-01-10T07:03:03.985Z,3.25
2023-01-10T07:05:32.441Z,3.45
2023-01-10T07:08:01.592Z,4.93
2023-01-10T07:10:30.152Z,4.45
2023-01-10T07:12:59.549Z,4.88
2023-01-10T07:15:28.669Z,3.22
2023-01-10T07:17:59.669Z,6.70
2023-01-10T07:20:28.780Z,2.78
2023-01-10T07:22:58.489Z,5.95
2023-01-10T07:25:28.110Z,6.28
2023-01-10T07:27:56.589Z,4.65
2023-01-10T07:30:26.186Z,6.57
2023-01-10T07:32:56.036Z,4.72
2023-01-10T07:35:26.435Z,9.40
2023-01-10T07:37:54.775Z,6.13
2023-01-10T07:40:23.029Z,5.10
2023-01-10T07:42:51.558Z,3.80
2023-01-10T07:45:19.988Z,5.38
2023-01-10T07:47:48.245Z,6.15
2023-01-10T07:50:18.095Z,4.03
2023-01-10T07:52:47.873Z,4.55
2023-01-10T07:55:16.838Z,3.95
2023-01-10T07:57:45.163Z,5.97
2023-01-10T08:00:14.674Z,4.57
2023-01-10T08:02:43.072Z,5.60
2023-01-10T08:05:11.670Z,6.03
2023-01-10T08:07:40.165Z,4.75
2023-01-10T08:10:11.329Z,6.13
2023-01-10T08:12:39.674Z,5.70
2023-01-10T08:15:08.924Z,5.30
2023-01-10T08:17:37.698Z,4.97
2023-01-10T08:20:06.683Z,3.88
2023-01-10T08:22:34.976Z,7.20
2023-01-10T08:25:03.398Z,5.80
2023-01-10T08:27:33.131Z,3.60
2023-01-10T08:30:01.500Z,6.25
2023-01-10T08:32:29.850Z,6.07
2023-01-10T08:34:58.232Z,7.68
2023-01-10T08:37:26.538Z,4.82
2023-01-10T08:39:55.245Z,6.70
2023-01-10T08:42:23.606Z,7.07
2023-01-10T08:44:54.503Z,10.60
2023-01-10T08:47:22.990Z,4.03
2023-01-10T08:49:51.365Z,4.47
2023-01-10T08:52:19.674Z,9.15
2023-01-10T08:54:47.975Z,4.28
2023-01-10T08:57:16.277Z,4.85
2023-01-10T08:59:44.678Z,7.13
2023-01-10T09:02:15.314Z,4.95
2023-01-10T09:04:43.899Z,12.70
2023-01-10T09:07:12.288Z,9.10
2023-01-10T09:09:41.049Z,6.50
2023-01-10T09:12:23.256Z,7.03
2023-01-10T09:14:51.827Z,7.53
2023-01-10T09:17:21.643Z,8.80
2023-01-10T09:19:49.943Z,8.85
2023-01-10T09:22:18.361Z,6.65
2023-01-10T09:24:46.697Z,7.15
2023-01-10T09:27:15.171Z,6.15
2023-01-10T09:29:43.496Z,4.65
2023-01-10T09:32:11.846Z,6.78
2023-01-10T09:34:41.680Z,3.78
2023-01-10T09:37:10.136Z,5.38
2023-01-10T09:39:38.385Z,6.18
2023-01-10T09:42:28.405Z,4.40
2023-01-10T09:45:05.600Z,6.72
2023-01-10T09:47:43.790Z,4.20
2023-01-10T09:50:20.549Z,5.28
2023-01-10T09:52:53.227Z,4.80
2023-01-10T09:55:29.157Z,3.65
2023-01-10T09:58:01.423Z,6.50
2023-01-10T10:00:40.180Z,5.45
2023-01-10T10:03:20.511Z,6.07
2023-01-10T10:05:54.101Z,3.30
2023-01-10T10:08:24.635Z,5.38
2023-01-10T10:11:02.082Z,5.45
2023-01-10T10:13:42.731Z,5.45
2023-01-10T10:16:20.896Z,5.22
2023-01-10T10:19:03.331Z,4.95
2023-01-10T10:21:43.960Z,8.52
2023-01-10T10:24:27.130Z,5.63
2023-01-10T10:27:00.362Z,6.75
2023-01-10T10:29:56.960Z,3.72
2023-01-10T10:32:38.015Z,5.05
2023-01-10T10:35:13.973Z,8.25
2023-01-10T10:37:47.327Z,4.90
2023-01-10T10:40:21.317Z,6.07
2023-01-10T10:42:52.060Z,6.53
2023-01-10T10:45:25.558Z,5.70
2023-01-10T10:48:04.825Z,5.15
2023-01-10T10:50:35.150Z,5.55
2023-01-10T10:53:06.243Z,3.47
2023-01-10T10:55:38.291Z,3.92
2023-01-10T10:58:08.602Z,8.23
2023-01-10T11:00:37.000Z,3.08
2023-01-10T11:03:18.670Z,4.55
2023-01-10T11:05:49.099Z,4.75
2023-01-10T11:08:21.554Z,3.67
2023-01-10T11:10:53.708Z,5.53
2023-01-10T11:13:31.060Z,3.47
2023-01-10T11:16:00.084Z,4.57
2023-01-10T11:18:30.773Z,3.17
2023-01-10T11:21:01.925Z,4.82
2023-01-10T11:23:43.229Z,4.30
2023-01-10T11:26:24.452Z,2.85
2023-01-10T11:28:55.206Z,5.05
2023-01-10T11:31:30.346Z,3.33
2023-01-10T11:33:59.404Z,5.47
2023-01-10T11:36:27.865Z,2.92
2023-01-10T11:39:03.746Z,6.43
2023-01-10T11:41:34.538Z,5.18
2023-01-10T11:44:22.563Z,6.45
2023-01-10T11:46:53.453Z,4.85
2023-01-10T11:49:28.535Z,2.90
2023-01-10T11:52:04.502Z,3.03
2023-01-10T11:54:35.010Z,3.03
2023-01-10T11:57:08.796Z,4.88
2023-01-10T11:59:39.243Z,4.47
2023-01-10T12:02:24.715Z,5.90
2023-01-10T12:04:55.529Z,3.47
2023-01-10T12:07:24.283Z,6.45
2023-01-10T12:09:59.491Z,4.25
2023-01-10T12:12:29.764Z,6.72
2023-01-10T12:15:00.083Z,2.33
2023-01-10T12:17:31.674Z,3.92
2023-01-10T12:20:02.412Z,3.22
2023-01-10T12:22:33.715Z,5.35
2023-01-10T12:25:08.019Z,3.53
2023-01-10T12:27:36.285Z,4.82
2023-01-10T12:30:12.957Z,8.07
2023-01-10T12:32:45.843Z,6.03
2023-01-10T12:35:18.802Z,7.50
2023-01-10T12:37:51.873Z,9.57
2023-01-10T12:40:32.343Z,8.18
2023-01-10T12:43:21.686Z,5.75
2023-01-10T12:45:54.614Z,4.72
2023-01-10T12:48:28.661Z,5.45
2023-01-10T12:51:02.386Z,6.70
2023-01-10T12:56:08.294Z,4.93
2023-01-10T12:58:44.211Z,9.05
2023-01-10T13:01:16.275Z,6.90
2023-01-10T13:03:46.299Z,6.25
2023-01-10T13:06:22.942Z,5.88
2023-01-10T13:08:52.482Z,8.23
2023-01-10T13:11:27.499Z,4.35
2023-01-10T13:14:01.147Z,5.38
2023-01-10T13:19:06.659Z,7.22
2023-01-10T13:21:35.870Z,6.35
2023-01-10T13:24:06.210Z,5.53
2023-01-10T13:27:02.086Z,5.20
2023-01-10T13:29:32.876Z,6.82
2023-01-10T13:32:03.533Z,5.45
2023-01-10T13:34:35.562Z,8.48
2023-01-10T13:37:12.039Z,5.28
2023-01-10T13:39:45.952Z,5.13
2023-01-10T13:42:48.137Z,7.30
2023-01-10T13:45:20.685Z,5.35
2023-01-10T13:48:26.095Z,7.22
2023-01-10T13:51:07.113Z,12.68
2023-01-10T13:53:53.340Z,5.28
2023-01-10T13:56:39.372Z,5.60
2023-01-10T13:59:31.763Z,5.38
2023-01-10T14:02:20.266Z,5.05
2023-01-10T14:04:52.200Z,4.28
2023-01-10T14:07:26.798Z,10.05
2023-01-10T14:10:04.553Z,12.07
2023-01-10T14:12:36.264Z,6.55
2023-01-10T14:15:23.195Z,3.42
2023-01-10T14:18:02.088Z,4.97
2023-01-10T14:20:32.718Z,9.13
2023-01-10T14:23:05.531Z,8.68
2023-01-10T14:25:36.452Z,3.30
2023-01-10T14:28:07.173Z,7.70
2023-01-10T14:30:40.996Z,6.18
2023-01-10T14:33:17.363Z,6.53
2023-01-10T14:35:47.937Z,7.05
2023-01-10T14:38:20.324Z,8.20
2023-01-10T14:40:51.525Z,7.20
2023-01-10T14:43:25.225Z,7.85
2023-01-10T14:48:31.061Z,5.85
2023-01-10T14:51:10.689Z,8.15
2023-01-10T14:53:39.470Z,7.93
2023-01-10T14:56:22.729Z,7.50
2023-01-10T14:58:51.155Z,8.10
2023-01-10T15:01:24.841Z,7.43
2023-01-10T15:06:24.064Z,9.55
2023-01-10T15:08:59.146Z,6.47
2023-01-10T15:11:29.125Z,8.52
2023-01-10T15:14:03.620Z,6.85
2023-01-10T15:16:35.226Z,6.28
2023-01-10T15:19:04.382Z,9.15
2023-01-10T15:21:32.916Z,10.25
2023-01-10T15:24:01.232Z,7.45
2023-01-10T15:26:33.595Z,9.13
2023-01-10T15:29:12.596Z,6.80
2023-01-10T15:31:44.596Z,7.95
2023-01-10T15:34:18.509Z,8.93
2023-01-10T15:36:51.066Z,5.47
2023-01-10T15:39:22.881Z,8.93
2023-01-10T15:41:57.030Z,6.70
2023-01-10T15:44:37.340Z,8.68
2023-01-10T15:47:08.270Z,4.70
2023-01-10T15:49:36.716Z,7.95
2023-01-10T15:52:05.062Z,7.30
2023-01-10T15:54:34.189Z,6.05
2023-01-10T15:57:08.020Z,13.45
2023-01-10T16:02:24.802Z,8.27
2023-01-10T16:04:57.236Z,7.75
2023-01-10T16:07:28.047Z,6.82
2023-01-10T16:09:59.816Z,9.02
2023-01-10T16:12:51.576Z,7.90
2023-01-10T16:15:22.272Z,8.45
2023-01-10T16:17:52.777Z,5.78
2023-01-10T16:20:23.027Z,12.20
2023-01-10T16:22:51.807Z,7.43
2023-01-10T16:25:25.040Z,6.60
2023-01-10T16:27:56.321Z,9.05
2023-01-10T16:30:26.842Z,6.93
2023-01-10T16:32:58.575Z,6.22
2023-01-10T16:35:27.144Z,10.02
2023-01-10T16:38:00.338Z,9.63
2023-01-10T16:40:30.561Z,8.40
2023-01-10T16:43:16.453Z,9.80
2023-01-10T16:45:45.224Z,7.03
2023-01-10T16:48:15.754Z,8.60
2023-01-10T16:50:44.356Z,8.43
2023-01-10T16:53:17.033Z,10.90
2023-01-10T16:55:50.638Z,8.40
2023-01-10T17:00:52.204Z,8.55
2023-01-10T17:03:36.484Z,8.32
2023-01-10T17:06:05.552Z,12.95
2023-01-10T17:08:33.915Z,7.93
2023-01-10T17:11:06.761Z,8.45
2023-01-10T17:13:40.326Z,8.73
2023-01-10T17:16:09.210Z,11.40
2023-01-10T17:18:39.554Z,8.43
2023-01-10T17:21:08.303Z,10.68
2023-01-10T17:23:36.872Z,11.18
2023-01-10T17:26:06.530Z,12.60
2023-01-10T17:28:35.697Z,11.00
2023-01-10T17:31:04.475Z,12.85
2023-01-10T17:33:34.292Z,10.27
2023-01-10T17:36:05.492Z,12.48
2023-01-10T17:38:33.798Z,12.98
2023-01-10T17:41:03.389Z,10.95
2023-01-10T17:43:32.651Z,14.95
2023-01-10T17:46:01.278Z,12.35
2023-01-10T17:48:30.692Z,9.60
2023-01-10T17:51:01.177Z,10.55
2023-01-10T17:53:31.753Z,12.32
2023-01-10T17:56:01.396Z,16.50
2023-01-10T17:58:33.157Z,8.75
2023-01-10T18:01:01.681Z,14.98
2023-01-10T18:03:30.209Z,13.38
2023-01-10T18:06:00.428Z,9.95
2023-01-10T18:08:30.231Z,12.98
2023-01-10T18:11:02.357Z,12.68
2023-01-10T18:13:31.978Z,11.95
2023-01-10T18:16:02.035Z,13.20
2023-01-10T18:18:31.583Z,8.75
2023-01-10T18:21:02.427Z,9.43
2023-01-10T18:23:33.925Z,13.25
2023-01-10T18:26:04.340Z,14.25
2023-01-10T18:28:41.744Z,12.95
2023-01-10T18:31:12.706Z,9.10
2023-01-10T18:33:41.663Z,10.70
2023-01-10T18:36:14.456Z,11.45
2023-01-10T18:38:44.652Z,12.53
2023-01-10T18:41:13.260Z,15.32
2023-01-10T18:43:41.684Z,7.47
2023-01-10T18:46:13.158Z,14.02
2023-01-10T18:48:42.005Z,10.95
2023-01-10T18:51:12.617Z,16.45
2023-01-10T18:53:41.373Z,11.98
2023-01-10T18:56:11.725Z,10.32
2023-01-10T18:58:41.632Z,9.75
2023-01-10T19:01:12.603Z,13.57
2023-01-10T19:03:41.384Z,9.48
2023-01-10T19:06:12.864Z,10.45
2023-01-10T19:08:41.242Z,15.23
2023-01-10T19:11:14.283Z,10.85
2023-01-10T19:13:43.872Z,11.57
2023-01-10T19:16:14.845Z,8.73
2023-01-10T19:18:43.817Z,11.55
2023-01-10T19:21:15.615Z,11.45
2023-01-10T19:23:44.761Z,11.57
2023-01-10T19:26:15.739Z,12.95
2023-01-10T19:28:44.848Z,9.68
2023-01-10T19:31:16.401Z,17.00
2023-01-10T19:33:46.267Z,12.23
2023-01-10T19:36:14.725Z,10.02
2023-01-10T19:38:43.155Z,8.73
2023-01-10T19:41:11.582Z,10.98
2023-01-10T19:43:41.545Z,12.43
2023-01-10T19:46:10.847Z,11.73
2023-01-10T19:48:39.844Z,8.13
2023-01-10T19:51:09.735Z,9.70
2023-01-10T19:53:39.378Z,6.88
2023-01-10T19:56:09.958Z,8.35
2023-01-10T19:58:40.898Z,7.32
2023-01-10T20:01:10.755Z,9.73
2023-01-10T20:03:41.130Z,9.13
2023-01-10T20:06:11.117Z,6.70
2023-01-10T20:08:39.483Z,5.15
2023-01-10T20:11:08.797Z,6.18
2023-01-10T20:13:40.118Z,7.13
2023-01-10T20:16:10.440Z,8.75
2023-01-10T20:18:38.840Z,8.77
2023-01-10T20:21:08.105Z,7.88
2023-01-10T20:23:37.125Z,8.60
2023-01-10T20:26:09.639Z,8.70
2023-01-10T20:28:39.080Z,10.48
2023-01-10T20:31:10.522Z,8.20
2023-01-10T20:33:38.890Z,8.68
2023-01-10T20:36:09.547Z,8.50
2023-01-10T20:38:38.571Z,8.43
2023-01-10T20:41:09.538Z,7.82
2023-01-10T20:43:38.195Z,8.70
2023-01-10T20:46:07.940Z,8.98
2023-01-10T20:48:38.478Z,7.80
2023-01-10T20:51:08.044Z,10.88
2023-01-10T20:53:36.455Z,8.40
2023-01-10T20:56:05.795Z,12.98
2023-01-10T20:58:35.080Z,7.82
2023-01-10T21:01:03.925Z,6.82
2023-01-10T21:03:32.406Z,7.80
2023-01-10T21:06:02.493Z,5.07
2023-01-10T21:08:30.920Z,9.77
2023-01-10T21:10:59.672Z,7.22
2023-01-10T21:13:29.355Z,5.38
2023-01-10T21:15:58.924Z,7.60
2023-01-10T21:18:31.272Z,6.45
2023-01-10T21:21:01.389Z,7.00
2023-01-10T21:23:30.282Z,5.88
2023-01-10T21:26:03.862Z,4.95
2023-01-10T21:28:35.146Z,6.53
2023-01-10T21:31:03.492Z,4.28
2023-01-10T21:33:31.954Z,6.30
2023-01-10T21:36:01.797Z,6.32
2023-01-10T21:38:30.479Z,4.45
2023-01-10T21:41:07.415Z,4.82
2023-01-10T21:43:38.884Z,6.72
2023-01-10T21:46:07.536Z,8.85
2023-01-10T21:48:36.143Z,3.95
2023-01-10T21:51:05.985Z,3.70
2023-01-10T21:53:34.365Z,4.80
2023-01-10T21:56:02.768Z,3.42
2023-01-10T21:58:31.148Z,3.63
2023-01-10T22:01:00.175Z,3.53
2023-01-10T22:03:28.658Z,2.92
2023-01-10T22:05:56.926Z,2.92
2023-01-10T22:08:26.792Z,4.30
2023-01-10T22:10:55.122Z,4.13
2023-01-10T22:13:25.566Z,4.78
2023-01-10T22:15:58.980Z,2.88
2023-01-10T22:18:27.604Z,2.80
2023-01-10T22:20:56.945Z,3.88
2023-01-10T22:23:28.653Z,4.30
2023-01-10T22:26:01.553Z,5.50
2023-01-10T22:28:30.436Z,4.05
2023-01-10T22:30:59.400Z,5.50
2023-01-10T22:33:30.606Z,6.93
2023-01-10T22:36:03.937Z,7.15
2023-01-10T22:38:34.255Z,9.98
2023-01-10T22:41:07.437Z,5.90
2023-01-10T22:43:36.338Z,7.50
2023-01-10T22:46:05.068Z,5.75
2023-01-10T22:48:33.746Z,6.65
2023-01-10T22:51:02.227Z,4.72
2023-01-10T22:53:30.552Z,7.15
2023-01-10T22:56:02.622Z,7.85
2023-01-10T22:58:31.196Z,7.25
2023-01-10T23:00:59.725Z,7.32
2023-01-10T23:03:28.089Z,7.00
2023-01-10T23:05:57.085Z,9.50
2023-01-10T23:08:25.470Z,7.47
2023-01-10T23:10:54.494Z,5.25
2023-01-10T23:13:25.289Z,11.20
2023-01-10T23:15:57.845Z,5.85
2023-01-10T23:18:26.181Z,6.45
2023-01-10T23:20:54.797Z,5.35
2023-01-10T23:23:23.672Z,5.15
2023-01-10T23:26:01.794Z,9.52
2023-01-10T23:28:32.929Z,4.18
2023-01-10T23:31:01.244Z,4.65
2023-01-10T23:33:30.364Z,2.92
2023-01-10T23:35:58.701Z,2.20
2023-01-10T23:38:27.575Z,1.83
2023-01-10T23:40:56.161Z,2.42
2023-01-10T23:43:25.101Z,2.88
2023-01-10T23:45:54.960Z,2.55
2023-01-10T23:48:23.851Z,4.32
2023-01-10T23:50:52.659Z,3.67
2023-01-10T23:53:21.212Z,3.67
2023-01-10T23:55:49.607Z,5.00
2023-01-10T23:58:18.171Z,5.55
